Terminal Aerodrome Forecast
Issued by NWS Central Illinois

Home | Current Version | Previous Version | Text Only | Print | Product List | Glossary On
Versions: 1 2 3 4 5 6 7 8 9 10 11 12 13 14 15 16
424
FTUS43 KILX 211145
TAFSPI
TAF
KSPI 211145Z 2112/2212 17007KT 4SM BR OVC025
     FM211400 17007KT 3SM BR OVC008
     FM211800 18010KT 3SM BR OVC008
     FM212300 16010KT 5SM BR OVC015
     FM220600 16012G20KT 5SM -SHRA OVC003=

USA.gov is the U.S. government's official web portal to all federal, state and local government web resources and services.